createdAt,value
2022-09-09T00:11:18.552Z,17.86
2022-09-09T00:26:42.128Z,17.77
2022-09-09T00:42:19.416Z,17.70
2022-09-09T00:57:36.004Z,17.69
2022-09-09T01:12:45.032Z,17.62
2022-09-09T01:27:58.062Z,17.12
2022-09-09T01:43:04.217Z,16.40
2022-09-09T01:58:38.141Z,15.66
2022-09-09T02:13:44.101Z,15.54
2022-09-09T02:28:51.477Z,15.54
2022-09-09T02:43:55.428Z,15.48
2022-09-09T02:58:58.629Z,15.29
2022-09-09T03:14:03.799Z,14.94
2022-09-09T03:29:09.009Z,14.65
2022-09-09T03:44:12.189Z,14.41
2022-09-09T03:59:16.357Z,14.33
2022-09-09T04:14:20.664Z,14.19
2022-09-09T04:29:24.330Z,14.13
2022-09-09T04:44:27.764Z,13.93
2022-09-09T04:59:31.441Z,13.85
2022-09-09T05:14:38.500Z,13.82
2022-09-09T05:29:44.689Z,13.71
2022-09-09T05:44:48.389Z,13.64
2022-09-09T05:59:52.225Z,13.65
2022-09-09T06:14:56.100Z,13.74
2022-09-09T06:29:59.377Z,13.82
2022-09-09T06:45:02.735Z,13.89
2022-09-09T07:00:15.593Z,13.84
2022-09-09T07:15:20.146Z,13.92
2022-09-09T07:30:27.530Z,14.12
2022-09-09T07:45:32.889Z,14.44
2022-09-09T08:00:36.043Z,14.52
2022-09-09T08:15:39.847Z,14.64
2022-09-09T08:30:43.556Z,14.41
2022-09-09T08:46:10.884Z,14.19
2022-09-09T09:01:24.673Z,14.26
2022-09-09T09:16:45.002Z,14.36
2022-09-09T09:32:00.087Z,14.48
2022-09-09T09:47:22.660Z,14.59
2022-09-09T10:02:42.148Z,14.64
2022-09-09T10:18:24.089Z,14.81
2022-09-09T10:33:52.388Z,14.77
2022-09-09T10:49:05.667Z,14.73
2022-09-09T11:04:20.421Z,14.76
2022-09-09T11:19:50.183Z,14.89
2022-09-09T11:35:07.320Z,15.04
2022-09-09T11:50:16.832Z,14.93
2022-09-09T12:05:22.336Z,14.97
2022-09-09T12:20:32.572Z,15.00
2022-09-09T12:35:39.901Z,15.01
2022-09-09T12:50:50.811Z,15.17
2022-09-09T13:06:02.226Z,15.29
2022-09-09T13:21:06.491Z,15.34
2022-09-09T13:36:15.826Z,15.44
2022-09-09T13:51:27.810Z,15.49
2022-09-09T14:06:31.697Z,15.51
2022-09-09T14:21:35.758Z,15.55
2022-09-09T14:36:39.539Z,15.50
2022-09-09T14:51:43.782Z,15.49
2022-09-09T15:06:49.711Z,15.47
2022-09-09T15:21:53.858Z,15.31
2022-09-09T15:36:57.738Z,15.22
2022-09-09T15:54:56.296Z,15.30
2022-09-09T16:10:00.577Z,15.23
2022-09-09T16:25:04.372Z,15.22
2022-09-09T16:40:08.906Z,15.13
2022-09-09T16:55:13.540Z,15.07
2022-09-09T17:10:17.674Z,15.09
2022-09-09T17:25:25.041Z,15.11
2022-09-09T17:40:29.560Z,15.07
2022-09-09T17:55:34.960Z,14.98
2022-09-09T18:10:39.942Z,15.04
2022-09-09T18:25:45.394Z,15.02
2022-09-09T18:40:49.371Z,15.03
2022-09-09T18:56:00.792Z,14.93
2022-09-09T19:11:09.364Z,14.76
2022-09-09T19:26:18.646Z,14.65
2022-09-09T19:41:25.450Z,14.62
2022-09-09T19:56:31.365Z,14.50
2022-09-09T20:11:36.804Z,14.53
2022-09-09T20:26:41.536Z,14.54
2022-09-09T20:41:46.769Z,14.51
2022-09-09T20:56:51.899Z,14.49
2022-09-09T21:11:55.047Z,14.43
2022-09-09T21:27:01.000Z,14.42
2022-09-09T21:42:05.515Z,14.43
2022-09-09T21:57:08.651Z,14.35
2022-09-09T22:12:11.772Z,14.38
2022-09-09T22:27:15.943Z,14.40
2022-09-09T22:42:19.588Z,14.39
2022-09-09T22:57:22.718Z,14.27
2022-09-09T23:12:25.959Z,14.28
2022-09-09T23:27:30.075Z,14.27
2022-09-09T23:42:33.646Z,14.28
2022-09-09T23:57:36.949Z,14.22
